createdAt,value
2017-09-15T00:01:24.019Z,1.10
2017-09-15T00:03:52.307Z,0.50
2017-09-15T00:06:20.823Z,0.50
2017-09-15T00:08:49.135Z,0.70
2017-09-15T00:11:17.452Z,0.67
2017-09-15T00:13:45.744Z,0.60
2017-09-15T00:16:14.035Z,0.97
2017-09-15T00:18:42.439Z,0.60
2017-09-15T00:21:10.750Z,0.50
2017-09-15T00:23:39.123Z,0.43
2017-09-15T00:26:07.443Z,0.80
2017-09-15T00:28:35.724Z,0.60
2017-09-15T00:31:04.043Z,0.60
2017-09-15T00:33:32.328Z,0.70
2017-09-15T00:36:00.614Z,0.70
2017-09-15T00:38:28.935Z,0.80
2017-09-15T00:40:57.219Z,0.70
2017-09-15T00:43:25.601Z,0.77
2017-09-15T00:45:53.974Z,0.90
2017-09-15T00:48:22.353Z,1.00
2017-09-15T00:50:50.764Z,0.80
2017-09-15T00:53:19.063Z,0.90
2017-09-15T00:55:47.571Z,0.90
2017-09-15T00:58:15.850Z,0.90
2017-09-15T01:00:44.136Z,1.17
2017-09-15T01:03:12.450Z,1.00
2017-09-15T01:05:40.726Z,1.00
2017-09-15T01:08:09.770Z,1.00
2017-09-15T01:10:38.076Z,1.20
2017-09-15T01:13:06.392Z,1.30
2017-09-15T01:15:34.703Z,1.20
2017-09-15T01:18:03.007Z,1.40
2017-09-15T01:20:31.412Z,1.53
2017-09-15T01:22:59.707Z,1.23
2017-09-15T01:25:28.014Z,1.33
2017-09-15T01:27:56.304Z,1.47
2017-09-15T01:30:24.639Z,1.17
2017-09-15T01:32:53.076Z,1.50
2017-09-15T01:35:21.427Z,1.40
2017-09-15T01:37:49.748Z,1.30
2017-09-15T01:40:18.043Z,1.87
2017-09-15T01:42:46.354Z,1.33
2017-09-15T01:45:14.732Z,1.30
2017-09-15T01:47:43.046Z,1.17
2017-09-15T01:50:11.332Z,1.40
2017-09-15T01:52:39.639Z,1.70
2017-09-15T01:55:07.950Z,1.67
2017-09-15T01:57:36.231Z,1.60
2017-09-15T02:00:04.552Z,1.50
2017-09-15T02:02:32.837Z,1.90
2017-09-15T02:05:01.248Z,2.20
2017-09-15T02:07:29.563Z,1.70
2017-09-15T02:09:57.847Z,2.00
2017-09-15T02:12:26.135Z,2.17
2017-09-15T02:14:54.497Z,2.20
2017-09-15T02:17:23.655Z,1.80
2017-09-15T02:19:51.947Z,2.43
2017-09-15T02:22:20.316Z,2.40
2017-09-15T02:24:48.626Z,2.27
2017-09-15T02:27:17.711Z,1.97
2017-09-15T02:29:45.994Z,2.10
2017-09-15T02:32:14.313Z,2.60
2017-09-15T02:34:42.736Z,3.17
2017-09-15T02:37:11.807Z,3.30
2017-09-15T02:39:40.123Z,2.57
2017-09-15T02:42:08.419Z,3.47
2017-09-15T02:44:36.698Z,3.23
2017-09-15T02:47:05.044Z,3.40
2017-09-15T02:49:33.327Z,3.77
2017-09-15T02:52:01.643Z,3.50
2017-09-15T02:54:29.971Z,3.93
2017-09-15T02:56:58.352Z,4.60
2017-09-15T02:59:26.670Z,4.27
2017-09-15T03:01:54.996Z,3.97
2017-09-15T03:04:23.339Z,4.07
2017-09-15T03:06:51.634Z,4.40
2017-09-15T03:09:20.097Z,3.80
2017-09-15T03:11:49.178Z,4.63
2017-09-15T03:14:17.494Z,4.90
2017-09-15T03:16:45.774Z,5.30
2017-09-15T03:19:14.187Z,4.40
2017-09-15T03:21:42.470Z,5.03
2017-09-15T03:24:10.782Z,5.60
2017-09-15T03:26:39.089Z,5.33
2017-09-15T03:29:07.376Z,6.40
2017-09-15T03:31:35.794Z,5.50
2017-09-15T03:34:04.110Z,5.87
2017-09-15T03:36:32.398Z,6.43
2017-09-15T03:39:00.735Z,5.97
2017-09-15T03:41:29.018Z,7.03
2017-09-15T03:43:57.403Z,5.37
2017-09-15T03:46:25.715Z,5.70
2017-09-15T03:48:54.019Z,6.30
2017-09-15T03:51:22.359Z,6.23
2017-09-15T03:53:51.486Z,6.37
2017-09-15T03:56:19.806Z,6.10
2017-09-15T03:58:48.158Z,6.10
2017-09-15T04:01:16.439Z,6.00
2017-09-15T04:03:44.722Z,6.03
2017-09-15T04:06:13.034Z,5.47
2017-09-15T04:08:41.346Z,4.70
2017-09-15T04:11:09.630Z,5.63
2017-09-15T04:13:37.955Z,5.10
2017-09-15T04:16:06.338Z,4.50
2017-09-15T04:18:34.651Z,5.57
2017-09-15T04:21:02.931Z,4.03
2017-09-15T04:23:31.260Z,4.87
2017-09-15T04:25:59.546Z,4.40
2017-09-15T04:28:27.855Z,5.00
2017-09-15T04:30:56.162Z,3.90
2017-09-15T04:33:24.450Z,4.13
2017-09-15T04:35:52.779Z,3.83
2017-09-15T04:38:21.126Z,4.30
2017-09-15T04:40:50.190Z,4.80
2017-09-15T04:43:18.527Z,4.10
2017-09-15T04:45:47.606Z,3.97
2017-09-15T04:48:15.919Z,4.13
2017-09-15T04:50:44.211Z,3.63
2017-09-15T04:53:12.527Z,4.50
2017-09-15T04:55:40.834Z,3.50
2017-09-15T04:58:09.907Z,4.47
2017-09-15T05:00:38.247Z,4.90
2017-09-15T05:03:06.528Z,3.83
2017-09-15T05:05:34.843Z,3.13
2017-09-15T05:08:03.123Z,3.60
2017-09-15T05:10:31.447Z,3.50
2017-09-15T05:12:59.756Z,2.70
2017-09-15T05:15:28.042Z,2.60
2017-09-15T05:17:56.354Z,3.00
2017-09-15T05:20:24.630Z,2.93
2017-09-15T05:22:52.955Z,2.40
2017-09-15T05:25:21.282Z,4.17
2017-09-15T05:27:49.597Z,3.07
2017-09-15T05:30:18.642Z,2.50
2017-09-15T05:32:46.963Z,2.40
2017-09-15T05:35:15.279Z,2.07
2017-09-15T05:37:43.578Z,1.80
2017-09-15T05:40:11.894Z,2.67
2017-09-15T05:42:40.183Z,2.40
2017-09-15T05:45:08.466Z,2.83
2017-09-15T05:47:36.780Z,2.97
2017-09-15T05:50:05.103Z,2.50
2017-09-15T05:52:33.380Z,2.30
2017-09-15T05:55:01.687Z,2.60
2017-09-15T05:57:29.963Z,2.93
2017-09-15T05:59:58.303Z,2.20
2017-09-15T06:02:26.809Z,2.27
2017-09-15T06:04:55.096Z,2.87
2017-09-15T06:07:23.504Z,2.13
2017-09-15T06:09:51.879Z,2.30
2017-09-15T06:12:20.199Z,1.80
2017-09-15T06:14:48.608Z,1.90
2017-09-15T06:17:16.911Z,1.77
2017-09-15T06:19:45.217Z,2.47
2017-09-15T06:22:13.632Z,2.00
2017-09-15T06:24:41.938Z,2.83
2017-09-15T06:27:10.226Z,2.53
2017-09-15T06:29:38.655Z,2.30
2017-09-15T06:32:07.048Z,2.07
2017-09-15T06:34:35.352Z,2.40
2017-09-15T06:37:03.759Z,2.30
2017-09-15T06:39:32.155Z,2.87
2017-09-15T06:42:00.430Z,2.60
2017-09-15T06:44:28.730Z,2.60
2017-09-15T06:46:57.068Z,2.17
2017-09-15T06:49:25.342Z,2.17
2017-09-15T06:51:53.648Z,2.17
2017-09-15T06:54:21.922Z,3.07
2017-09-15T06:56:50.414Z,3.67
2017-09-15T06:59:19.543Z,3.80
2017-09-15T07:01:48.610Z,2.37
2017-09-15T07:04:16.914Z,3.70
2017-09-15T07:06:45.227Z,3.00
2017-09-15T07:09:13.507Z,2.67
2017-09-15T07:11:41.791Z,2.60
2017-09-15T07:14:10.107Z,2.20
2017-09-15T07:16:38.383Z,2.43
2017-09-15T07:19:06.731Z,2.83
2017-09-15T07:21:35.047Z,3.10
2017-09-15T07:24:03.327Z,2.93
2017-09-15T07:26:31.635Z,2.77
2017-09-15T07:28:59.950Z,2.00
2017-09-15T07:31:28.339Z,2.47
2017-09-15T07:33:56.621Z,2.43
2017-09-15T07:36:24.926Z,2.03
2017-09-15T07:38:53.202Z,2.33
2017-09-15T07:41:21.485Z,2.20
2017-09-15T07:43:50.567Z,2.13
2017-09-15T07:46:18.846Z,2.33
2017-09-15T07:48:47.155Z,1.80
2017-09-15T07:51:15.466Z,2.10
2017-09-15T07:53:43.774Z,2.00
2017-09-15T07:56:12.088Z,1.83
2017-09-15T07:58:40.365Z,1.43
2017-09-15T08:01:08.679Z,1.60
2017-09-15T08:03:36.960Z,1.73
2017-09-15T08:06:05.278Z,2.37
2017-09-15T08:08:33.587Z,1.97
2017-09-15T08:11:01.863Z,2.10
2017-09-15T08:13:30.182Z,1.40
2017-09-15T08:15:58.487Z,2.30
2017-09-15T08:18:26.766Z,1.63
2017-09-15T08:20:55.086Z,2.80
2017-09-15T08:23:23.391Z,2.90
2017-09-15T08:25:51.702Z,2.20
2017-09-15T08:28:20.399Z,2.40
2017-09-15T08:30:48.706Z,2.07
2017-09-15T08:33:17.107Z,3.00
2017-09-15T08:35:45.386Z,1.90
2017-09-15T08:38:13.703Z,2.07
2017-09-15T08:40:41.982Z,2.20
2017-09-15T08:43:10.268Z,1.70
2017-09-15T08:45:39.347Z,1.73
2017-09-15T08:48:07.631Z,1.93
2017-09-15T08:50:35.934Z,2.60
2017-09-15T08:53:04.242Z,1.23
2017-09-15T08:55:32.551Z,2.57
2017-09-15T08:58:00.943Z,2.30
2017-09-15T09:00:29.251Z,2.00
2017-09-15T09:02:57.547Z,1.50
2017-09-15T09:05:25.823Z,1.40
2017-09-15T09:07:54.139Z,1.50
2017-09-15T09:10:22.427Z,1.80
2017-09-15T09:12:50.754Z,1.43
2017-09-15T09:15:19.030Z,1.27
2017-09-15T09:17:47.655Z,1.20
2017-09-15T09:20:15.933Z,2.43
2017-09-15T09:22:44.246Z,1.43
2017-09-15T09:25:12.567Z,1.80
2017-09-15T09:27:40.867Z,1.13
2017-09-15T09:30:09.151Z,0.90
2017-09-15T09:32:37.458Z,1.20
2017-09-15T09:35:05.764Z,1.53
2017-09-15T09:37:34.082Z,1.13
2017-09-15T09:40:02.387Z,1.10
2017-09-15T09:42:30.659Z,1.53
2017-09-15T09:44:58.977Z,1.20
2017-09-15T09:47:27.284Z,0.97
2017-09-15T09:49:55.554Z,1.20
2017-09-15T09:52:23.859Z,0.90
2017-09-15T09:54:52.171Z,1.00
2017-09-15T09:57:21.002Z,0.77
2017-09-15T09:59:49.310Z,0.70
2017-09-15T10:02:17.619Z,0.97
2017-09-15T10:04:46.008Z,0.70
2017-09-15T10:07:14.282Z,1.90
2017-09-15T10:09:42.579Z,0.70
2017-09-15T10:12:10.895Z,1.00
2017-09-15T10:14:39.174Z,0.60
2017-09-15T10:17:07.455Z,0.90
2017-09-15T10:19:36.531Z,1.10
2017-09-15T10:22:04.942Z,0.57
2017-09-15T10:24:33.215Z,1.00
2017-09-15T10:27:01.490Z,0.70
2017-09-15T10:29:30.666Z,0.63
2017-09-15T10:31:58.942Z,0.90
2017-09-15T10:34:27.247Z,1.43
2017-09-15T10:36:55.567Z,1.70
2017-09-15T10:39:23.883Z,1.00
2017-09-15T10:41:52.163Z,0.97
2017-09-15T10:44:20.480Z,1.10
2017-09-15T10:46:48.792Z,2.50
2017-09-15T10:49:17.836Z,0.80
2017-09-15T10:51:46.910Z,0.80
2017-09-15T10:54:15.186Z,0.90
2017-09-15T10:56:43.498Z,0.60
2017-09-15T10:59:17.435Z,0.80
2017-09-15T11:01:45.855Z,1.10
2017-09-15T11:04:14.131Z,1.07
2017-09-15T11:06:42.559Z,1.00
2017-09-15T11:09:10.834Z,1.17
2017-09-15T11:11:39.110Z,0.70
2017-09-15T11:14:08.182Z,0.87
2017-09-15T11:16:36.490Z,0.63
2017-09-15T11:19:04.767Z,1.03
2017-09-15T11:21:33.086Z,0.90
2017-09-15T11:24:01.496Z,0.80
2017-09-15T11:26:29.799Z,0.70
2017-09-15T11:28:58.074Z,1.20
2017-09-15T11:31:26.351Z,1.33
2017-09-15T11:33:55.519Z,0.90
2017-09-15T11:36:23.798Z,0.70
2017-09-15T11:38:52.083Z,0.87
2017-09-15T11:41:20.395Z,1.33
2017-09-15T11:43:48.671Z,1.43
2017-09-15T11:46:17.023Z,1.20
2017-09-15T11:48:45.331Z,0.93
2017-09-15T11:51:13.626Z,1.23
2017-09-15T11:53:42.107Z,1.30
2017-09-15T11:56:10.387Z,0.80
2017-09-15T11:58:39.431Z,1.40
2017-09-15T12:01:07.751Z,1.07
2017-09-15T12:03:36.027Z,0.60
2017-09-15T12:06:04.335Z,0.87
2017-09-15T12:08:32.638Z,1.30
2017-09-15T12:11:00.959Z,0.70
2017-09-15T12:13:29.266Z,0.90
2017-09-15T12:15:57.651Z,1.03
2017-09-15T12:18:25.958Z,0.80
2017-09-15T12:20:54.379Z,1.53
2017-09-15T12:23:22.668Z,0.80
2017-09-15T12:25:51.095Z,0.70
2017-09-15T12:28:19.371Z,0.70
2017-09-15T12:30:47.679Z,1.13
2017-09-15T12:33:15.982Z,1.33
2017-09-15T12:35:44.287Z,1.00
2017-09-15T12:38:12.619Z,0.70
2017-09-15T12:40:40.890Z,0.87
2017-09-15T12:43:09.191Z,0.90
2017-09-15T12:45:37.600Z,0.70
2017-09-15T12:48:05.907Z,0.83
2017-09-15T12:50:34.214Z,0.70
2017-09-15T12:53:04.007Z,1.00
2017-09-15T12:55:32.310Z,1.00
2017-09-15T12:58:00.621Z,0.80
2017-09-15T13:00:28.943Z,1.30
2017-09-15T13:02:57.255Z,1.30
2017-09-15T13:05:25.548Z,1.00
2017-09-15T13:07:53.859Z,1.00
2017-09-15T13:10:22.656Z,0.80
2017-09-15T13:12:50.932Z,0.70
2017-09-15T13:15:19.249Z,0.83
2017-09-15T13:17:47.526Z,0.87
2017-09-15T13:20:15.838Z,0.80
2017-09-15T13:22:44.171Z,1.23
2017-09-15T13:25:12.491Z,0.80
2017-09-15T13:27:41.703Z,0.80
2017-09-15T13:30:10.006Z,1.07
2017-09-15T13:32:38.282Z,1.10
2017-09-15T13:35:06.592Z,1.40
2017-09-15T13:37:34.899Z,0.73
2017-09-15T13:40:03.178Z,1.27
2017-09-15T13:42:31.491Z,0.93
2017-09-15T13:44:59.815Z,0.77
2017-09-15T13:47:28.096Z,0.70
2017-09-15T13:49:56.371Z,0.80
2017-09-15T13:52:24.690Z,0.70
2017-09-15T13:54:53.014Z,0.97
2017-09-15T13:57:21.327Z,1.20
2017-09-15T13:59:51.123Z,1.33
2017-09-15T14:02:19.448Z,1.33
2017-09-15T14:04:47.851Z,0.90
2017-09-15T14:07:16.167Z,0.90
2017-09-15T14:09:44.558Z,1.30
2017-09-15T14:12:12.836Z,0.90
2017-09-15T14:14:41.148Z,0.80
2017-09-15T14:17:09.467Z,1.60
2017-09-15T14:19:37.777Z,1.00
2017-09-15T14:22:06.071Z,0.90
2017-09-15T14:24:34.384Z,1.00
2017-09-15T14:27:02.687Z,1.10
2017-09-15T14:29:30.967Z,0.97
2017-09-15T14:31:59.379Z,0.93
2017-09-15T14:34:27.678Z,1.30
2017-09-15T14:36:55.991Z,1.00
2017-09-15T14:39:24.315Z,1.17
2017-09-15T14:41:52.690Z,0.90
2017-09-15T14:44:21.115Z,0.90
2017-09-15T14:46:49.400Z,0.80
2017-09-15T14:49:17.678Z,1.27
2017-09-15T14:51:46.039Z,1.17
2017-09-15T14:54:15.114Z,1.37
2017-09-15T14:56:43.513Z,0.90
2017-09-15T14:59:11.818Z,1.50
2017-09-15T15:01:40.094Z,1.93
2017-09-15T15:04:08.426Z,2.33
2017-09-15T15:06:36.747Z,1.50
2017-09-15T15:09:05.031Z,1.40
2017-09-15T15:11:33.337Z,1.50
2017-09-15T15:14:01.662Z,1.20
2017-09-15T15:16:29.935Z,1.53
2017-09-15T15:18:58.234Z,1.30
2017-09-15T15:21:26.639Z,1.10
2017-09-15T15:23:54.919Z,1.03
2017-09-15T15:26:23.254Z,0.80
2017-09-15T15:28:51.563Z,1.00
2017-09-15T15:31:21.517Z,0.90
2017-09-15T15:33:49.799Z,1.00
2017-09-15T15:36:18.107Z,0.80
2017-09-15T15:38:47.923Z,0.80
2017-09-15T15:41:16.234Z,0.87
2017-09-15T15:43:44.542Z,0.93
2017-09-15T15:46:14.330Z,1.00
2017-09-15T15:48:42.638Z,0.70
2017-09-15T15:51:10.946Z,0.70
2017-09-15T15:53:39.226Z,0.80
2017-09-15T15:56:08.311Z,0.90
2017-09-15T15:58:36.590Z,0.80
2017-09-15T16:01:04.871Z,0.80
2017-09-15T16:03:33.184Z,0.87
2017-09-15T16:06:01.463Z,0.90
2017-09-15T16:08:29.771Z,1.23
2017-09-15T16:10:58.048Z,0.80
2017-09-15T16:13:27.095Z,0.90
2017-09-15T16:15:55.411Z,1.00
2017-09-15T16:18:23.743Z,0.90
2017-09-15T16:20:53.530Z,0.90
2017-09-15T16:23:21.843Z,0.87
2017-09-15T16:25:50.169Z,1.20
2017-09-15T16:28:20.006Z,0.90
2017-09-15T16:30:48.283Z,1.00
2017-09-15T16:33:16.592Z,0.80
2017-09-15T16:35:44.903Z,1.00
2017-09-15T16:38:18.915Z,0.80
2017-09-15T16:40:52.808Z,1.47
2017-09-15T16:43:26.874Z,1.10
2017-09-15T16:46:01.008Z,0.90
2017-09-15T16:48:35.686Z,1.33
2017-09-15T16:51:04.006Z,0.90
2017-09-15T16:53:32.411Z,1.30
2017-09-15T16:56:00.690Z,1.00
2017-09-15T16:58:29.000Z,0.97
2017-09-15T17:00:57.279Z,1.33
2017-09-15T17:03:25.635Z,1.13
2017-09-15T17:05:53.947Z,1.20
2017-09-15T17:08:23.747Z,1.10
2017-09-15T17:10:52.062Z,1.50
2017-09-15T17:13:20.394Z,1.30
2017-09-15T17:15:48.720Z,1.37
2017-09-15T17:18:17.058Z,1.63
2017-09-15T17:20:45.369Z,1.47
2017-09-15T17:23:13.690Z,1.10
2017-09-15T17:25:41.998Z,1.30
2017-09-15T17:28:11.802Z,2.27
2017-09-15T17:30:40.111Z,1.30
2017-09-15T17:33:08.431Z,1.50
2017-09-15T17:35:36.721Z,1.83
2017-09-15T17:38:05.042Z,1.43
2017-09-15T17:40:34.827Z,1.60
2017-09-15T17:43:03.110Z,1.50
2017-09-15T17:45:32.182Z,1.53
2017-09-15T17:48:00.925Z,1.77
2017-09-15T17:50:30.011Z,1.60
2017-09-15T17:52:58.507Z,2.70
2017-09-15T17:55:26.783Z,1.90
2017-09-15T17:57:55.086Z,3.17
2017-09-15T18:00:23.395Z,2.53
2017-09-15T18:02:51.715Z,3.67
2017-09-15T18:05:20.035Z,3.33
2017-09-15T18:07:48.418Z,5.00
2017-09-15T18:10:16.702Z,9.50
2017-09-15T18:12:45.035Z,5.63
2017-09-15T18:15:13.307Z,3.83
2017-09-15T18:17:41.620Z,2.97
2017-09-15T18:20:09.926Z,3.13
2017-09-15T18:22:38.359Z,2.80
2017-09-15T18:25:06.624Z,2.73
2017-09-15T18:27:35.039Z,2.73
2017-09-15T18:30:03.442Z,3.10
2017-09-15T18:32:31.758Z,3.40
2017-09-15T18:35:00.044Z,4.27
2017-09-15T18:37:28.978Z,2.97
2017-09-15T18:39:57.247Z,3.63
2017-09-15T18:42:25.560Z,2.87
2017-09-15T18:44:53.938Z,3.30
2017-09-15T18:47:22.348Z,3.20
2017-09-15T18:49:50.982Z,3.93
2017-09-15T18:52:19.308Z,2.53
2017-09-15T18:54:47.643Z,2.83
2017-09-15T18:57:15.923Z,4.57
2017-09-15T18:59:45.016Z,3.37
2017-09-15T19:02:13.318Z,4.60
2017-09-15T19:04:41.710Z,6.87
2017-09-15T19:07:10.022Z,5.10
2017-09-15T19:09:38.302Z,4.47
2017-09-15T19:12:06.631Z,5.33
2017-09-15T19:14:34.910Z,5.07
2017-09-15T19:17:03.191Z,7.03
2017-09-15T19:19:31.546Z,8.30
2017-09-15T19:22:00.206Z,7.03
2017-09-15T19:24:28.539Z,6.23
2017-09-15T19:26:57.018Z,5.57
2017-09-15T19:29:25.335Z,5.20
2017-09-15T19:31:53.615Z,5.10
2017-09-15T19:34:21.947Z,8.80
2017-09-15T19:36:50.291Z,8.33
2017-09-15T19:39:19.367Z,6.70
2017-09-15T19:41:47.739Z,7.30
2017-09-15T19:44:16.076Z,7.47
2017-09-15T19:46:44.486Z,10.70
2017-09-15T19:49:12.785Z,11.90
2017-09-15T19:51:41.086Z,13.13
2017-09-15T19:54:09.486Z,10.27
2017-09-15T19:56:37.787Z,5.60
2017-09-15T19:59:06.193Z,3.97
2017-09-15T20:01:34.468Z,5.20
2017-09-15T20:04:02.776Z,4.10
2017-09-15T20:06:31.203Z,5.00
2017-09-15T20:08:59.519Z,5.50
2017-09-15T20:11:27.907Z,6.20
2017-09-15T20:13:56.218Z,8.43
2017-09-15T20:16:24.507Z,9.83
2017-09-15T20:18:52.839Z,4.70
2017-09-15T20:21:22.628Z,3.73
2017-09-15T20:23:50.908Z,3.93
2017-09-15T20:26:19.255Z,3.47
2017-09-15T20:28:47.574Z,4.03
2017-09-15T20:31:15.883Z,3.60
2017-09-15T20:33:44.199Z,3.90
2017-09-15T20:36:13.247Z,4.10
2017-09-15T20:38:41.590Z,4.30
2017-09-15T20:41:09.898Z,4.00
2017-09-15T20:43:38.183Z,4.70
2017-09-15T20:46:06.510Z,4.70
2017-09-15T20:48:34.790Z,5.13
2017-09-15T20:51:03.070Z,4.93
2017-09-15T20:53:31.385Z,6.30
2017-09-15T20:55:59.662Z,4.90
2017-09-15T20:58:27.974Z,4.50
2017-09-15T21:00:56.295Z,4.87
2017-09-15T21:03:24.576Z,4.57
2017-09-15T21:05:52.887Z,5.57
2017-09-15T21:08:21.174Z,4.77
2017-09-15T21:10:49.607Z,5.20
2017-09-15T21:13:17.923Z,5.70
2017-09-15T21:15:46.271Z,4.77
2017-09-15T21:18:14.594Z,4.33
2017-09-15T21:20:43.313Z,5.63
2017-09-15T21:23:11.606Z,4.90
2017-09-15T21:25:39.968Z,4.40
2017-09-15T21:28:09.014Z,5.43
2017-09-15T21:30:37.351Z,4.50
2017-09-15T21:33:05.647Z,4.93
2017-09-15T21:35:33.967Z,5.20
2017-09-15T21:38:02.257Z,4.90
2017-09-15T21:40:30.570Z,4.03
2017-09-15T21:42:58.890Z,4.57
2017-09-15T21:45:27.983Z,4.40
2017-09-15T21:47:56.949Z,4.43
2017-09-15T21:50:25.991Z,4.10
2017-09-15T21:52:54.328Z,3.73
2017-09-15T21:55:22.623Z,5.20
2017-09-15T21:57:51.133Z,4.30
2017-09-15T22:00:19.627Z,4.27
2017-09-15T22:02:47.907Z,4.20
2017-09-15T22:05:16.186Z,4.23
2017-09-15T22:07:44.521Z,4.00
2017-09-15T22:10:12.838Z,4.60
2017-09-15T22:12:41.136Z,5.60
2017-09-15T22:15:09.447Z,4.30
2017-09-15T22:17:37.819Z,4.63
2017-09-15T22:20:06.112Z,4.20
2017-09-15T22:22:34.435Z,4.40
2017-09-15T22:25:02.715Z,4.67
2017-09-15T22:27:31.006Z,3.70
2017-09-15T22:29:59.324Z,4.77
2017-09-15T22:32:27.654Z,5.10
2017-09-15T22:34:56.059Z,4.20
2017-09-15T22:37:24.358Z,4.07
2017-09-15T22:39:52.646Z,3.97
2017-09-15T22:42:21.886Z,4.37
2017-09-15T22:44:50.390Z,4.27
2017-09-15T22:47:18.674Z,3.80
2017-09-15T22:49:46.955Z,3.43
2017-09-15T22:52:15.287Z,4.40
2017-09-15T22:54:43.566Z,5.50
2017-09-15T22:57:11.871Z,5.30
2017-09-15T22:59:40.199Z,4.90
2017-09-15T23:02:08.518Z,5.30
2017-09-15T23:04:36.790Z,5.70
2017-09-15T23:07:05.066Z,3.80
2017-09-15T23:09:33.378Z,5.00
2017-09-15T23:12:01.664Z,3.70
2017-09-15T23:14:30.707Z,5.00
2017-09-15T23:17:01.225Z,4.87
2017-09-15T23:19:30.706Z,5.73
2017-09-15T23:21:58.978Z,4.93
2017-09-15T23:24:27.289Z,4.33
2017-09-15T23:26:55.674Z,4.30
2017-09-15T23:29:23.951Z,4.93
2017-09-15T23:31:52.277Z,4.00
2017-09-15T23:34:20.556Z,4.30
2017-09-15T23:36:50.332Z,4.57
2017-09-15T23:39:18.667Z,4.53
2017-09-15T23:41:47.546Z,5.07
2017-09-15T23:44:15.971Z,4.50
2017-09-15T23:46:44.250Z,3.67
2017-09-15T23:49:12.578Z,4.87
2017-09-15T23:51:40.987Z,4.27
2017-09-15T23:54:09.274Z,5.83
2017-09-15T23:56:37.580Z,4.60
2017-09-15T23:59:05.850Z,4.37
